sensor_id;sensor_type;location;lat;lon;timestamp;pressure;altitude;pressure_sealevel;temperature;humidity
33163;BME280;29282;45.656;11.302;2024-02-21T00:02:19;99294.91;;;19.36;50.08
33163;BME280;29282;45.656;11.302;2024-02-21T00:04:45;99296.03;;;19.35;49.94
33163;BME280;29282;45.656;11.302;2024-02-21T00:07:10;99288.09;;;19.33;50.04
33163;BME280;29282;45.656;11.302;2024-02-21T00:09:35;99290.03;;;19.33;49.96
33163;BME280;29282;45.656;11.302;2024-02-21T00:12:01;99293.13;;;19.31;49.95
33163;BME280;29282;45.656;11.302;2024-02-21T00:14:27;99292.00;;;19.32;49.95
33163;BME280;29282;45.656;11.302;2024-02-21T00:16:52;99291.47;;;19.30;49.92
33163;BME280;29282;45.656;11.302;2024-02-21T00:19:17;99293.41;;;19.30;50.01
33163;BME280;29282;45.656;11.302;2024-02-21T00:21:43;99292.63;;;19.29;49.93
33163;BME280;29282;45.656;11.302;2024-02-21T00:24:08;99287.44;;;19.28;49.86
33163;BME280;29282;45.656;11.302;2024-02-21T00:26:34;99285.50;;;19.28;49.91
33163;BME280;29282;45.656;11.302;2024-02-21T00:28:59;99281.44;;;19.25;49.93
33163;BME280;29282;45.656;11.302;2024-02-21T00:31:25;99280.66;;;19.25;49.93
33163;BME280;29282;45.656;11.302;2024-02-21T00:33:53;99286.94;;;19.25;49.91
33163;BME280;29282;45.656;11.302;2024-02-21T00:36:21;99287.28;;;19.24;49.88
33163;BME280;29282;45.656;11.302;2024-02-21T00:38:47;99280.13;;;19.23;49.91
33163;BME280;29282;45.656;11.302;2024-02-21T00:41:12;99277.72;;;19.21;49.81
33163;BME280;29282;45.656;11.302;2024-02-21T00:43:38;99280.13;;;19.23;49.91
33163;BME280;29282;45.656;11.302;2024-02-21T00:46:05;99282.06;;;19.22;49.84
33163;BME280;29282;45.656;11.302;2024-02-21T00:48:31;99283.50;;;19.20;49.78
33163;BME280;29282;45.656;11.302;2024-02-21T00:50:56;99278.84;;;19.20;49.76
33163;BME280;29282;45.656;11.302;2024-02-21T00:53:22;99278.84;;;19.20;49.76
33163;BME280;29282;45.656;11.302;2024-02-21T00:55:47;99273.66;;;19.19;49.84
33163;BME280;29282;45.656;11.302;2024-02-21T00:58:16;99278.34;;;19.18;49.90
33163;BME280;29282;45.656;11.302;2024-02-21T01:00:41;99280.28;;;19.18;49.84
33163;BME280;29282;45.656;11.302;2024-02-21T01:03:07;99275.09;;;19.16;49.82
33163;BME280;29282;45.656;11.302;2024-02-21T01:05:32;99275.91;;;19.17;49.67
33163;BME280;29282;45.656;11.302;2024-02-21T01:07:58;99273.47;;;19.15;49.86
33163;BME280;29282;45.656;11.302;2024-02-21T01:10:23;99269.13;;;19.14;49.81
33163;BME280;29282;45.656;11.302;2024-02-21T01:12:49;99271.53;;;19.16;49.72
33163;BME280;29282;45.656;11.302;2024-02-21T01:15:14;99263.94;;;19.13;49.87
33163;BME280;29282;45.656;11.302;2024-02-21T01:17:40;99266.69;;;19.13;49.72
33163;BME280;29282;45.656;11.302;2024-02-21T01:20:09;99267.81;;;19.12;49.80
33163;BME280;29282;45.656;11.302;2024-02-21T01:22:34;99263.44;;;19.11;49.77
33163;BME280;29282;45.656;11.302;2024-02-21T01:25:00;99263.75;;;19.09;49.78
33163;BME280;29282;45.656;11.302;2024-02-21T01:27:25;99259.88;;;19.10;49.58
33163;BME280;29282;45.656;11.302;2024-02-21T01:29:51;99261.50;;;19.11;49.66
33163;BME280;29282;45.656;11.302;2024-02-21T01:32:16;99262.94;;;19.09;49.69
33163;BME280;29282;45.656;11.302;2024-02-21T01:34:42;99261.34;;;19.08;49.74
33163;BME280;29282;45.656;11.302;2024-02-21T01:37:08;99268.75;;;19.07;49.75
33163;BME280;29282;45.656;11.302;2024-02-21T01:39:34;99271.47;;;19.07;49.74
33163;BME280;29282;45.656;11.302;2024-02-21T01:41:59;99263.56;;;19.06;49.76
33163;BME280;29282;45.656;11.302;2024-02-21T01:44:25;99262.75;;;19.05;49.76
33163;BME280;29282;45.656;11.302;2024-02-21T01:46:51;99254.81;;;19.04;49.64
33163;BME280;29282;45.656;11.302;2024-02-21T01:49:18;99265.81;;;19.04;49.60
33163;BME280;29282;45.656;11.302;2024-02-21T01:51:44;99267.75;;;19.03;49.69
33163;BME280;29282;45.656;11.302;2024-02-21T01:54:10;99276.00;;;19.03;49.67
33163;BME280;29282;45.656;11.302;2024-02-21T01:56:38;99270.03;;;19.01;49.66
33163;BME280;29282;45.656;11.302;2024-02-21T01:59:04;99264.81;;;18.99;49.72
33163;BME280;29282;45.656;11.302;2024-02-21T02:01:30;99261.28;;;18.99;49.71
33163;BME280;29282;45.656;11.302;2024-02-21T02:03:55;99259.34;;;18.99;49.65
33163;BME280;29282;45.656;11.302;2024-02-21T02:06:22;99261.28;;;18.99;49.63
33163;BME280;29282;45.656;11.302;2024-02-21T02:08:48;99244.00;;;18.98;49.52
33163;BME280;29282;45.656;11.302;2024-02-21T02:11:14;99253.03;;;18.99;49.50
33163;BME280;29282;45.656;11.302;2024-02-21T02:13:40;99249.78;;;18.97;49.61
33163;BME280;29282;45.656;11.302;2024-02-21T02:16:06;99247.03;;;18.97;49.63
33163;BME280;29282;45.656;11.302;2024-02-21T02:18:31;99239.94;;;18.96;49.66
33163;BME280;29282;45.656;11.302;2024-02-21T02:20:57;99244.91;;;18.94;49.53
33163;BME280;29282;45.656;11.302;2024-02-21T02:23:25;99239.44;;;18.94;49.63
33163;BME280;29282;45.656;11.302;2024-02-21T02:25:51;99246.06;;;18.93;49.74
33163;BME280;29282;45.656;11.302;2024-02-21T02:28:20;99241.69;;;18.92;49.70
33163;BME280;29282;45.656;11.302;2024-02-21T02:30:46;99247.19;;;18.92;49.69
33163;BME280;29282;45.656;11.302;2024-02-21T02:33:15;99245.25;;;18.92;49.63
33163;BME280;29282;45.656;11.302;2024-02-21T02:35:43;99239.56;;;18.89;49.69
33163;BME280;29282;45.656;11.302;2024-02-21T02:38:08;99238.44;;;18.90;49.51
33163;BME280;29282;45.656;11.302;2024-02-21T02:40:35;99241.19;;;18.90;49.61
33163;BME280;29282;45.656;11.302;2024-02-21T02:43:01;99236.81;;;18.89;49.60
33163;BME280;29282;45.656;11.302;2024-02-21T02:45:26;99230.53;;;18.88;49.51
33163;BME280;29282;45.656;11.302;2024-02-21T02:47:53;99227.78;;;18.88;49.61
33163;BME280;29282;45.656;11.302;2024-02-21T02:50:26;99227.78;;;18.88;49.52
33163;BME280;29282;45.656;11.302;2024-02-21T02:52:52;99223.72;;;18.86;49.49
33163;BME280;29282;45.656;11.302;2024-02-21T02:55:18;99225.66;;;18.85;49.55
33163;BME280;29282;45.656;11.302;2024-02-21T02:57:43;99217.72;;;18.84;49.64
33163;BME280;29282;45.656;11.302;2024-02-21T03:00:13;99225.97;;;18.84;49.55
33163;BME280;29282;45.656;11.302;2024-02-21T03:02:40;99227.59;;;18.85;49.44
33163;BME280;29282;45.656;11.302;2024-02-21T03:05:14;99220.81;;;18.82;49.54
33163;BME280;29282;45.656;11.302;2024-02-21T03:07:40;99220.28;;;18.80;49.33
33163;BME280;29282;45.656;11.302;2024-02-21T03:10:06;99231.28;;;18.80;49.55
33163;BME280;29282;45.656;11.302;2024-02-21T03:12:32;99225.78;;;18.80;49.49
33163;BME280;29282;45.656;11.302;2024-02-21T03:14:57;99228.53;;;18.80;49.56
33163;BME280;29282;45.656;11.302;2024-02-21T03:17:23;99226.91;;;18.79;49.46
33163;BME280;29282;45.656;11.302;2024-02-21T03:19:50;99237.09;;;18.78;49.50
33163;BME280;29282;45.656;11.302;2024-02-21T03:22:15;99242.59;;;18.78;49.50
33163;BME280;29282;45.656;11.302;2024-02-21T03:24:42;99237.09;;;18.78;49.38
33163;BME280;29282;45.656;11.302;2024-02-21T03:27:07;99244.00;;;18.76;49.46
33163;BME280;29282;45.656;11.302;2024-02-21T03:29:36;99255.81;;;18.76;49.49
33163;BME280;29282;45.656;11.302;2024-02-21T03:32:02;99251.94;;;18.77;49.42
33163;BME280;29282;45.656;11.302;2024-02-21T03:34:27;99247.09;;;18.74;49.25
33163;BME280;29282;45.656;11.302;2024-02-21T03:36:53;99244.34;;;18.74;49.47
33163;BME280;29282;45.656;11.302;2024-02-21T03:42:01;99246.25;;;18.74;49.32
33163;BME280;29282;45.656;11.302;2024-02-21T03:44:30;99247.38;;;18.73;49.29
33163;BME280;29282;45.656;11.302;2024-02-21T03:46:56;99242.69;;;18.73;49.44
33163;BME280;29282;45.656;11.302;2024-02-21T03:49:21;99250.13;;;18.73;49.27
33163;BME280;29282;45.656;11.302;2024-02-21T03:51:47;99245.44;;;18.73;49.35
33163;BME280;29282;45.656;11.302;2024-02-21T03:54:13;99242.19;;;18.71;49.32
33163;BME280;29282;45.656;11.302;2024-02-21T03:56:39;99244.13;;;18.71;49.35
33163;BME280;29282;45.656;11.302;2024-02-21T03:59:07;99241.69;;;18.69;49.35
33163;BME280;29282;45.656;11.302;2024-02-21T04:01:36;99237.00;;;18.70;49.28
33163;BME280;29282;45.656;11.302;2024-02-21T04:04:02;99235.38;;;18.69;49.37
33163;BME280;29282;45.656;11.302;2024-02-21T04:06:27;99229.09;;;18.68;49.29
33163;BME280;29282;45.656;11.302;2024-02-21T04:08:53;99225.53;;;18.68;49.23
33163;BME280;29282;45.656;11.302;2024-02-21T04:11:19;99234.59;;;18.68;49.30
33163;BME280;29282;45.656;11.302;2024-02-21T04:13:45;99234.88;;;18.67;49.22
33163;BME280;29282;45.656;11.302;2024-02-21T04:16:14;99236.81;;;18.66;49.29
33163;BME280;29282;45.656;11.302;2024-02-21T04:18:39;99234.06;;;18.66;49.28
33163;BME280;29282;45.656;11.302;2024-02-21T04:21:05;99236.81;;;18.66;49.16
33163;BME280;29282;45.656;11.302;2024-02-21T04:23:31;99242.31;;;18.66;49.30
33163;BME280;29282;45.656;11.302;2024-02-21T04:25:56;99243.44;;;18.65;49.31
33163;BME280;29282;45.656;11.302;2024-02-21T04:28:22;99246.19;;;18.65;49.20
33163;BME280;29282;45.656;11.302;2024-02-21T04:30:47;99245.66;;;18.63;49.22
33163;BME280;29282;45.656;11.302;2024-02-21T04:33:13;99236.34;;;18.64;49.17
33163;BME280;29282;45.656;11.302;2024-02-21T04:35:38;99236.34;;;18.64;49.18
33163;BME280;29282;45.656;11.302;2024-02-21T04:38:04;99234.69;;;18.63;49.25
33163;BME280;29282;45.656;11.302;2024-02-21T04:40:30;99241.31;;;18.62;49.37
33163;BME280;29282;45.656;11.302;2024-02-21T04:42:57;99236.63;;;18.63;49.26
33163;BME280;29282;45.656;11.302;2024-02-21T04:45:22;99233.09;;;18.62;49.26
33163;BME280;29282;45.656;11.302;2024-02-21T04:47:48;99236.97;;;18.61;49.17
33163;BME280;29282;45.656;11.302;2024-02-21T04:50:14;99236.97;;;18.61;49.16
33163;BME280;29282;45.656;11.302;2024-02-21T04:52:39;99238.06;;;18.60;49.11
33163;BME280;29282;45.656;11.302;2024-02-21T04:55:05;99246.28;;;18.60;49.16
33163;BME280;29282;45.656;11.302;2024-02-21T04:57:31;99246.28;;;18.60;49.33
33163;BME280;29282;45.656;11.302;2024-02-21T04:59:57;99243.56;;;18.60;49.06
33163;BME280;29282;45.656;11.302;2024-02-21T05:02:23;99248.22;;;18.60;49.21
33163;BME280;29282;45.656;11.302;2024-02-21T05:04:50;99244.69;;;18.59;49.14
33163;BME280;29282;45.656;11.302;2024-02-21T05:07:15;99258.41;;;18.59;49.12
33163;BME280;29282;45.656;11.302;2024-02-21T05:09:44;99253.25;;;18.58;49.00
33163;BME280;29282;45.656;11.302;2024-02-21T05:12:09;99263.38;;;18.57;49.13
33163;BME280;29282;45.656;11.302;2024-02-21T05:14:35;99259.84;;;18.57;49.16
33163;BME280;29282;45.656;11.302;2024-02-21T05:17:00;99271.94;;;18.55;48.99
33163;BME280;29282;45.656;11.302;2024-02-21T05:19:26;99267.25;;;18.56;49.09
33163;BME280;29282;45.656;11.302;2024-02-21T05:21:51;99258.53;;;18.54;49.15
33163;BME280;29282;45.656;11.302;2024-02-21T05:24:17;99250.00;;;18.55;49.08
33163;BME280;29282;45.656;11.302;2024-02-21T05:26:45;99251.94;;;18.55;49.07
33163;BME280;29282;45.656;11.302;2024-02-21T05:29:11;99245.63;;;18.54;49.09
33163;BME280;29282;45.656;11.302;2024-02-21T05:31:55;99245.94;;;18.53;49.11
33163;BME280;29282;45.656;11.302;2024-02-21T05:34:24;99246.44;;;18.55;49.18
33163;BME280;29282;45.656;11.302;2024-02-21T05:36:51;99245.94;;;18.53;49.14
33163;BME280;29282;45.656;11.302;2024-02-21T05:39:17;99246.72;;;18.53;48.96
33163;BME280;29282;45.656;11.302;2024-02-21T05:41:42;99242.38;;;18.52;48.94
33163;BME280;29282;45.656;11.302;2024-02-21T05:44:08;99244.31;;;18.52;48.92
33163;BME280;29282;45.656;11.302;2024-02-21T05:46:34;99247.53;;;18.54;48.95
33163;BME280;29282;45.656;11.302;2024-02-21T05:49:00;99246.25;;;18.51;48.99
33163;BME280;29282;45.656;11.302;2024-02-21T05:51:26;99247.06;;;18.52;49.04
33163;BME280;29282;45.656;11.302;2024-02-21T05:53:51;99251.75;;;18.51;49.02
33163;BME280;29282;45.656;11.302;2024-02-21T05:56:17;99246.53;;;18.50;48.96
33163;BME280;29282;45.656;11.302;2024-02-21T05:58:43;99242.69;;;18.51;48.88
33163;BME280;29282;45.656;11.302;2024-02-21T06:01:09;99240.75;;;18.51;48.92
33163;BME280;29282;45.656;11.302;2024-02-21T06:03:35;99244.16;;;18.57;48.82
33163;BME280;29282;45.656;11.302;2024-02-21T06:06:04;99246.03;;;18.70;48.38
33163;BME280;29282;45.656;11.302;2024-02-21T06:08:30;99245.38;;;18.87;47.91
33163;BME280;29282;45.656;11.302;2024-02-21T06:10:58;99243.47;;;18.96;47.93
33163;BME280;29282;45.656;11.302;2024-02-21T06:13:24;99241.78;;;19.09;47.62
33163;BME280;29282;45.656;11.302;2024-02-21T06:15:50;99240.56;;;19.24;47.22
33163;BME280;29282;45.656;11.302;2024-02-21T06:18:19;99228.78;;;19.32;47.11
33163;BME280;29282;45.656;11.302;2024-02-21T06:20:45;99239.94;;;19.36;47.09
33163;BME280;29282;45.656;11.302;2024-02-21T06:23:16;99238.19;;;19.40;46.95
33163;BME280;29282;45.656;11.302;2024-02-21T06:25:45;99240.63;;;19.41;46.68
33163;BME280;29282;45.656;11.302;2024-02-21T06:28:11;99243.56;;;19.45;46.94
33163;BME280;29282;45.656;11.302;2024-02-21T06:30:37;99253.41;;;19.46;46.88
33163;BME280;29282;45.656;11.302;2024-02-21T06:33:02;99259.06;;;19.49;46.83
33163;BME280;29282;45.656;11.302;2024-02-21T06:35:28;99252.78;;;19.49;46.89
33163;BME280;29282;45.656;11.302;2024-02-21T06:37:57;99252.47;;;19.51;46.96
33163;BME280;29282;45.656;11.302;2024-02-21T06:40:23;99250.66;;;19.46;46.92
33163;BME280;29282;45.656;11.302;2024-02-21T06:42:49;99261.34;;;19.47;46.92
33163;BME280;29282;45.656;11.302;2024-02-21T06:45:15;99258.09;;;19.45;47.05
33163;BME280;29282;45.656;11.302;2024-02-21T06:47:41;99267.16;;;19.46;46.95
33163;BME280;29282;45.656;11.302;2024-02-21T06:50:06;99264.72;;;19.44;47.05
33163;BME280;29282;45.656;11.302;2024-02-21T06:52:35;99268.78;;;19.47;46.98
33163;BME280;29282;45.656;11.302;2024-02-21T06:55:01;99261.53;;;19.60;46.70
33163;BME280;29282;45.656;11.302;2024-02-21T06:57:28;99258.38;;;19.75;46.38
33163;BME280;29282;45.656;11.302;2024-02-21T06:59:53;99261.63;;;19.86;46.19
33163;BME280;29282;45.656;11.302;2024-02-21T07:02:18;99271.34;;;19.92;46.16
33163;BME280;29282;45.656;11.302;2024-02-21T07:04:44;99278.63;;;19.97;46.03
33163;BME280;29282;45.656;11.302;2024-02-21T07:07:09;99276.25;;;20.04;45.85
33163;BME280;29282;45.656;11.302;2024-02-21T07:09:35;99268.16;;;20.07;45.94
33163;BME280;29282;45.656;11.302;2024-02-21T07:12:01;99271.06;;;20.11;45.72
33163;BME280;29282;45.656;11.302;2024-02-21T07:14:29;99274.50;;;20.16;45.84
33163;BME280;29282;45.656;11.302;2024-02-21T07:16:55;99274.50;;;20.16;45.92
33163;BME280;29282;45.656;11.302;2024-02-21T07:19:22;99275.13;;;20.13;45.94
33163;BME280;29282;45.656;11.302;2024-02-21T07:21:50;99269.63;;;20.13;45.86
33163;BME280;29282;45.656;11.302;2024-02-21T07:24:16;99284.00;;;20.19;46.07
33163;BME280;29282;45.656;11.302;2024-02-21T07:26:42;99280.16;;;20.20;45.82
33163;BME280;29282;45.656;11.302;2024-02-21T07:29:10;99280.16;;;20.20;45.88
33163;BME280;29282;45.656;11.302;2024-02-21T07:31:43;99280.97;;;20.21;45.77
33163;BME280;29282;45.656;11.302;2024-02-21T07:34:09;99274.81;;;20.24;45.87
33163;BME280;29282;45.656;11.302;2024-02-21T07:36:34;99274.81;;;20.24;45.98
33163;BME280;29282;45.656;11.302;2024-02-21T07:39:04;99277.56;;;20.24;45.98
33163;BME280;29282;45.656;11.302;2024-02-21T07:41:32;99283.06;;;20.24;45.90
33163;BME280;29282;45.656;11.302;2024-02-21T07:43:59;99293.56;;;20.22;46.11
33163;BME280;29282;45.656;11.302;2024-02-21T07:46:25;99297.63;;;20.24;46.05
33163;BME280;29282;45.656;11.302;2024-02-21T07:48:51;99287.25;;;20.21;46.34
33163;BME280;29282;45.656;11.302;2024-02-21T07:51:16;99300.06;;;20.17;46.46
33163;BME280;29282;45.656;11.302;2024-02-21T07:53:43;99302.81;;;20.17;46.28
33163;BME280;29282;45.656;11.302;2024-02-21T07:56:13;99304.41;;;20.18;46.48
33163;BME280;29282;45.656;11.302;2024-02-21T07:58:42;99295.34;;;20.17;46.51
33163;BME280;29282;45.656;11.302;2024-02-21T08:01:08;99304.41;;;20.18;46.42
33163;BME280;29282;45.656;11.302;2024-02-21T08:03:34;99296.50;;;20.16;46.36
33163;BME280;29282;45.656;11.302;2024-02-21T08:05:59;99292.28;;;20.19;46.34
33163;BME280;29282;45.656;11.302;2024-02-21T08:08:25;99300.22;;;20.21;46.62
33163;BME280;29282;45.656;11.302;2024-02-21T08:10:51;99299.88;;;20.22;46.36
33163;BME280;29282;45.656;11.302;2024-02-21T08:13:17;99302.00;;;20.25;46.41
33163;BME280;29282;45.656;11.302;2024-02-21T08:15:43;99302.78;;;20.26;46.37
33163;BME280;29282;45.656;11.302;2024-02-21T08:18:09;99302.78;;;20.26;46.37
33163;BME280;29282;45.656;11.302;2024-02-21T08:20:34;99300.69;;;20.23;46.65
33163;BME280;29282;45.656;11.302;2024-02-21T08:23:00;99307.84;;;20.24;46.56
33163;BME280;29282;45.656;11.302;2024-02-21T08:25:26;99302.31;;;20.24;46.80
33163;BME280;29282;45.656;11.302;2024-02-21T08:27:57;99299.56;;;20.24;46.76
33163;BME280;29282;45.656;11.302;2024-02-21T08:30:22;99298.44;;;20.25;46.68
33163;BME280;29282;45.656;11.302;2024-02-21T08:32:48;99298.09;;;20.26;46.50
33163;BME280;29282;45.656;11.302;2024-02-21T08:35:14;99300.69;;;20.23;46.82
33163;BME280;29282;45.656;11.302;2024-02-21T08:37:39;99300.38;;;20.24;46.88
33163;BME280;29282;45.656;11.302;2024-02-21T08:40:05;99297.63;;;20.24;46.71
33163;BME280;29282;45.656;11.302;2024-02-21T08:42:35;99299.88;;;20.22;46.73
33163;BME280;29282;45.656;11.302;2024-02-21T08:45:01;99292.44;;;20.23;46.80
33163;BME280;29282;45.656;11.302;2024-02-21T08:47:27;99290.19;;;20.25;46.78
33163;BME280;29282;45.656;11.302;2024-02-21T08:49:52;99288.88;;;20.22;46.59
33163;BME280;29282;45.656;11.302;2024-02-21T08:52:18;99285.66;;;20.20;46.52
33163;BME280;29282;45.656;11.302;2024-02-21T08:54:43;99279.81;;;20.22;46.46
33163;BME280;29282;45.656;11.302;2024-02-21T08:57:09;99278.03;;;20.17;46.75
33163;BME280;29282;45.656;11.302;2024-02-21T08:59:34;99278.03;;;20.17;46.50
33163;BME280;29282;45.656;11.302;2024-02-21T09:02:00;99280.00;;;20.16;46.64
33163;BME280;29282;45.656;11.302;2024-02-21T09:04:25;99272.84;;;20.15;46.66
33163;BME280;29282;45.656;11.302;2024-02-21T09:06:51;99273.00;;;20.19;46.38
33163;BME280;29282;45.656;11.302;2024-02-21T09:09:17;99278.22;;;20.21;45.87
33163;BME280;29282;45.656;11.302;2024-02-21T09:11:43;99276.41;;;20.25;45.97
33163;BME280;29282;45.656;11.302;2024-02-21T09:14:11;99269.13;;;20.29;45.68
33163;BME280;29282;45.656;11.302;2024-02-21T09:16:37;99262.00;;;20.28;45.67
33163;BME280;29282;45.656;11.302;2024-02-21T09:19:05;99255.38;;;20.29;45.83
33163;BME280;29282;45.656;11.302;2024-02-21T09:21:31;99252.31;;;20.30;45.62
33163;BME280;29282;45.656;11.302;2024-02-21T09:23:56;99246.81;;;20.30;45.84
33163;BME280;29282;45.656;11.302;2024-02-21T09:26:21;99253.13;;;20.31;45.67
33163;BME280;29282;45.656;11.302;2024-02-21T09:28:47;99253.13;;;20.31;45.80
33163;BME280;29282;45.656;11.302;2024-02-21T09:31:13;99249.56;;;20.30;45.92
33163;BME280;29282;45.656;11.302;2024-02-21T09:33:38;99244.53;;;20.32;45.79
33163;BME280;29282;45.656;11.302;2024-02-21T09:36:04;99246.47;;;20.32;45.85
33163;BME280;29282;45.656;11.302;2024-02-21T09:38:33;99251.16;;;20.31;45.88
33163;BME280;29282;45.656;11.302;2024-02-21T09:41:00;99250.03;;;20.32;45.75
33163;BME280;29282;45.656;11.302;2024-02-21T09:43:29;99248.09;;;20.33;45.84
33163;BME280;29282;45.656;11.302;2024-02-21T09:45:58;99242.56;;;20.33;46.00
33163;BME280;29282;45.656;11.302;2024-02-21T09:48:42;99236.59;;;20.31;46.07
33163;BME280;29282;45.656;11.302;2024-02-21T09:51:11;99237.41;;;20.31;45.83
33163;BME280;29282;45.656;11.302;2024-02-21T09:53:42;99237.41;;;20.31;46.29
33163;BME280;29282;45.656;11.302;2024-02-21T09:56:08;99231.91;;;20.31;46.18
33163;BME280;29282;45.656;11.302;2024-02-21T09:58:34;99228.66;;;20.29;46.01
33163;BME280;29282;45.656;11.302;2024-02-21T10:01:00;99224.78;;;20.30;46.18
33163;BME280;29282;45.656;11.302;2024-02-21T10:03:25;99225.91;;;20.29;46.10
33163;BME280;29282;45.656;11.302;2024-02-21T10:05:51;99225.91;;;20.29;46.33
33163;BME280;29282;45.656;11.302;2024-02-21T10:08:18;99224.00;;;20.30;46.12
33163;BME280;29282;45.656;11.302;2024-02-21T10:10:45;99224.63;;;20.27;46.26
33163;BME280;29282;45.656;11.302;2024-02-21T10:13:23;99222.19;;;20.25;46.31
33163;BME280;29282;45.656;11.302;2024-02-21T10:16:03;99217.50;;;20.26;46.37
33163;BME280;29282;45.656;11.302;2024-02-21T10:18:29;99217.50;;;20.26;46.30
33163;BME280;29282;45.656;11.302;2024-02-21T10:21:05;99220.88;;;20.23;46.28
33163;BME280;29282;45.656;11.302;2024-02-21T10:23:48;99205.03;;;20.19;46.62
33163;BME280;29282;45.656;11.302;2024-02-21T10:26:14;99210.53;;;20.19;46.55
33163;BME280;29282;45.656;11.302;2024-02-21T10:28:41;99214.91;;;20.21;46.40
33163;BME280;29282;45.656;11.302;2024-02-21T10:31:11;99214.13;;;20.20;46.66
33163;BME280;29282;45.656;11.302;2024-02-21T10:33:53;99225.13;;;20.20;46.37
33163;BME280;29282;45.656;11.302;2024-02-21T10:36:19;99225.75;;;20.17;46.52
33163;BME280;29282;45.656;11.302;2024-02-21T10:38:45;99226.56;;;20.17;46.14
33163;BME280;29282;45.656;11.302;2024-02-21T10:41:13;99224.63;;;20.18;46.54
33163;BME280;29282;45.656;11.302;2024-02-21T10:43:40;99220.56;;;20.15;46.71
33163;BME280;29282;45.656;11.302;2024-02-21T10:46:09;99221.38;;;20.16;46.44
33163;BME280;29282;45.656;11.302;2024-02-21T10:48:45;99217.00;;;20.15;46.57
33163;BME280;29282;45.656;11.302;2024-02-21T10:51:17;99212.00;;;20.17;46.47
33163;BME280;29282;45.656;11.302;2024-02-21T10:54:02;99211.84;;;20.13;46.81
33163;BME280;29282;45.656;11.302;2024-02-21T10:56:33;99196.00;;;20.10;46.92
33163;BME280;29282;45.656;11.302;2024-02-21T10:59:05;99197.25;;;20.13;46.80
33163;BME280;29282;45.656;11.302;2024-02-21T11:01:32;99190.47;;;20.10;46.88
33163;BME280;29282;45.656;11.302;2024-02-21T11:04:18;99192.09;;;20.11;46.89
33163;BME280;29282;45.656;11.302;2024-02-21T11:06:44;99178.69;;;20.10;46.80
33163;BME280;29282;45.656;11.302;2024-02-21T11:09:10;99172.84;;;20.11;46.70
33163;BME280;29282;45.656;11.302;2024-02-21T11:11:41;99166.84;;;20.09;46.81
33163;BME280;29282;45.656;11.302;2024-02-21T11:14:27;99162.16;;;20.10;46.79
33163;BME280;29282;45.656;11.302;2024-02-21T11:16:52;99163.63;;;20.07;47.00
33163;BME280;29282;45.656;11.302;2024-02-21T11:19:22;99163.28;;;20.09;46.92
33163;BME280;29282;45.656;11.302;2024-02-21T11:21:48;99157.78;;;20.09;47.07
33163;BME280;29282;45.656;11.302;2024-02-21T11:24:31;99146.78;;;20.09;47.00
33163;BME280;29282;45.656;11.302;2024-02-21T11:27:09;99137.22;;;20.06;46.95
33163;BME280;29282;45.656;11.302;2024-02-21T11:29:44;99130.59;;;20.07;47.10
33163;BME280;29282;45.656;11.302;2024-02-21T11:32:10;99120.06;;;20.09;47.11
33163;BME280;29282;45.656;11.302;2024-02-21T11:34:37;99117.16;;;20.06;46.78
33163;BME280;29282;45.656;11.302;2024-02-21T11:37:13;99116.34;;;20.05;47.08
33163;BME280;29282;45.656;11.302;2024-02-21T11:39:41;99121.56;;;20.07;47.08
33163;BME280;29282;45.656;11.302;2024-02-21T11:42:07;99118.81;;;20.07;46.80
33163;BME280;29282;45.656;11.302;2024-02-21T11:44:37;99110.06;;;20.05;47.25
33163;BME280;29282;45.656;11.302;2024-02-21T11:47:04;99105.69;;;20.04;47.26
33163;BME280;29282;45.656;11.302;2024-02-21T11:49:30;99109.25;;;20.04;47.21
33163;BME280;29282;45.656;11.302;2024-02-21T11:52:00;99102.59;;;20.05;47.23
33163;BME280;29282;45.656;11.302;2024-02-21T11:54:27;99105.34;;;20.05;47.26
33163;BME280;29282;45.656;11.302;2024-02-21T11:56:55;99098.72;;;20.06;47.15
33163;BME280;29282;45.656;11.302;2024-02-21T11:59:20;99102.91;;;20.12;46.87
33163;BME280;29282;45.656;11.302;2024-02-21T12:01:48;99104.72;;;20.17;46.92
33163;BME280;29282;45.656;11.302;2024-02-21T12:04:13;99099.34;;;20.12;46.98
33163;BME280;29282;45.656;11.302;2024-02-21T12:06:39;99083.19;;;20.10;47.05
33163;BME280;29282;45.656;11.302;2024-02-21T12:09:07;99092.06;;;20.16;47.09
33163;BME280;29282;45.656;11.302;2024-02-21T12:11:34;99086.41;;;20.21;47.06
33163;BME280;29282;45.656;11.302;2024-02-21T12:14:03;99090.91;;;20.26;47.01
33163;BME280;29282;45.656;11.302;2024-02-21T12:16:31;99077.66;;;20.28;47.11
33163;BME280;29282;45.656;11.302;2024-02-21T12:18:58;99072.63;;;20.30;47.23
33163;BME280;29282;45.656;11.302;2024-02-21T12:21:30;99065.66;;;20.32;47.33
33163;BME280;29282;45.656;11.302;2024-02-21T12:23:56;99063.03;;;20.36;47.66
33163;BME280;29282;45.656;11.302;2024-02-21T12:26:22;99051.22;;;20.35;47.52
33163;BME280;29282;45.656;11.302;2024-02-21T12:28:47;99059.81;;;20.34;48.03
33163;BME280;29282;45.656;11.302;2024-02-21T12:31:13;99047.38;;;20.28;48.21
33163;BME280;29282;45.656;11.302;2024-02-21T12:33:39;99048.31;;;20.32;48.28
33163;BME280;29282;45.656;11.302;2024-02-21T12:36:05;99044.91;;;20.35;48.11
33163;BME280;29282;45.656;11.302;2024-02-21T12:38:31;99047.66;;;20.35;48.68
33163;BME280;29282;45.656;11.302;2024-02-21T12:40:56;99041.88;;;20.28;49.35
33163;BME280;29282;45.656;11.302;2024-02-21T12:43:26;99030.06;;;20.18;49.52
33163;BME280;29282;45.656;11.302;2024-02-21T12:45:51;99022.53;;;20.07;49.16
33163;BME280;29282;45.656;11.302;2024-02-21T12:48:18;99026.88;;;19.99;49.33
33163;BME280;29282;45.656;11.302;2024-02-21T12:50:49;99023.19;;;19.95;49.22
33163;BME280;29282;45.656;11.302;2024-02-21T12:53:19;99017.53;;;19.91;49.08